Skip to Main Content

If you see just a black screen when trying to view Live Traffic cameras, please click inside the window to get video to play. An update to certain browsers is not allowing the video to auto-play when the window opens. 

SEARCH:
Location Air RH Dwp Precip Type Wind Speed Wind Gust Direction Pavement Temperature Date/Time
Hatem Bridge US 40 E/B 85 52 65 None 4 mph 12 mph SW 98 - 98 6/24/2018 5:49:00 PM
I-270 at I-370 82 67 70 None Calm Calm N 101 - 101 6/24/2018 5:45:00 PM
I-270 at MD-109 82 80 75 None Calm 6 mph SW 102 - 98 6/24/2018 5:50:00 PM
I-495 at American Legion Bridge 82 75 74 None 4 mph 11 mph W 97 - 99 6/24/2018 5:50:00 PM
I-68 at Savage Mt 72 71 62 None Calm 9 mph SW 88 - 91 6/24/2018 5:50:00 PM
I-68 at Sideling Hill 71 100 71 None Calm 4 mph W 91 - 95 6/24/2018 5:50:00 PM
I-68 at US 219 70 80 64 None 12 mph 24 mph W 83 - 85 6/24/2018 5:50:00 PM
I-68 at WV Line 71 90 68 None Calm 4 mph S 78 - 79 6/24/2018 5:45:00 PM
I-695 at I-83 83 60 68 None Calm 12 mph SW 101 - 102 6/24/2018 5:45:00 PM
I-695 on FSK Bridge 84 56 67 None 12 mph 13 mph N 96 - 96 6/24/2018 5:54:00 PM
I-70 at Fred-Wash Co. 78 80 71 Rain Calm 20 mph W 88 - 90 6/24/2018 5:45:00 PM
I-70 at I-695 82 69 71 None 5 mph 11 mph W 84 - 98 6/24/2018 5:45:00 PM
I-70 at I-81 72 96 71 None 4 mph 8 mph NW - 6/24/2018 5:50:00 PM
I-70 at MD-27 82 73 72 None 5 mph 15 mph SW 101 - 102 6/24/2018 5:50:00 PM
I-70 at MD-32 81 66 69 None 5 mph 11 mph SW 101 - 98 6/24/2018 5:50:00 PM
I-83 at MD-137 83 68 71 None Calm 8 mph S 101 - 101 6/24/2018 5:50:00 PM
I-95 at I-695 NE 84 56 67 None 6 mph 9 mph W 100 - 106 6/24/2018 5:54:00 PM
I-95 at Patuxent River 85 61 70 None Calm 9 mph NW 98 - 99 6/24/2018 5:50:00 PM
I-95 at Tydings Bridge 85 55 67 None 10 mph 19 mph SW 101 - 104 6/24/2018 5:50:00 PM
I-95/495 at I-295 89 60 74 None Calm 4 mph SW 97 - 99 6/24/2018 5:50:00 PM
I-97 at MD-100 85 56 68 None 9 mph 14 mph SW 101 - 102 6/24/2018 5:45:00 PM
I-97 at MD-32 84 58 68 None Calm 8 mph SW 103 - 106 6/24/2018 5:45:00 PM
IS 70 W of I-270 - - - No Data Available - - No Data Available 106 - 106 6/24/2018 5:50:00 PM
MD 136 @ MD 646 83 57 66 No Data Available Calm 7 mph W 107 - 107 6/24/2018 5:50:00 PM
MD 20 at MD 21 85 60 70 None 4 mph 8 mph SW 111 - 111 6/24/2018 5:45:00 PM
MD 23 at Meadowtree Road 80 67 68 No Data Available Calm 4 mph SE 95 - 95 6/24/2018 5:50:00 PM
MD 231 at Patuxent River 78 90 75 None 7 mph 10 mph SW 85 - 87 6/24/2018 5:45:00 PM
MD 24 at Jarrettsville Road 82 60 67 No Data Available Calm 6 mph W 110 - 110 6/24/2018 5:50:00 PM
MD 260 at Cox Rd 81 81 75 None 4 mph 9 mph SW 100 - 100 6/24/2018 5:45:00 PM
MD-135 at Salt Dome 70 84 65 None 4 mph 11 mph SW 94 - 94 6/24/2018 5:50:00 PM
MD-140 at MD-97 79 68 68 None 7 mph 16 mph SW 102 - 102 6/24/2018 5:50:00 PM
MD-200 EB at Bonifant Rd - - - No Data Available - - No Data Available -
MD-200 WB at Muncaster Mill Rd 83 63 69 None Calm 9 mph W 100 - 99 6/24/2018 5:54:00 PM
MD-213 at Sassafras River 86 64 73 None 6 mph 10 mph W 105 - 105 6/24/2018 5:50:00 PM
MD-24 at Rock St Park 78 84 73 None Calm Calm N 86 - 86 6/24/2018 5:50:00 PM
MD-30 at PA Line 78 78 71 None Calm 8 mph SW 100 - 100 6/24/2018 5:50:00 PM
MD-33 at Knapps Narrows Drawbridge 82 78 75 None Calm 10 mph SW 99 - 99 6/24/2018 5:45:00 PM
MD-344 at MD-224 80 84 75 None Calm Calm N 105 - 105 6/24/2018 5:45:00 PM
MD-4 at Patuxent River 78 97 77 None 16 mph 19 mph S 84 - 84 6/24/2018 5:53:00 PM
MD-404 at Choptank River 85 61 70 None Calm 5 mph SE 102 - 103 6/24/2018 5:45:00 PM
MD-43 at MD-150 85 56 67 None 8 mph 15 mph W 102 - 104 6/24/2018 5:50:00 PM
MD-51 at Oldtown Salt Dome 84 57 67 None Calm 8 mph SE 110 - 110 6/24/2018 5:45:00 PM
MD-64 at MD-418 71 90 68 None Calm 9 mph W 85 - 87 6/24/2018 5:45:00 PM
US 301 at MD 305 84 63 70 None Calm 5 mph SW 102 - 108 6/24/2018 5:45:00 PM
US-1 at Baltimore / Harford Co. Line 81 66 68 None Calm 10 mph SE 92 - 93 6/24/2018 5:45:00 PM
US-1 at Conowingo Dam 84 63 70 None 4 mph 10 mph S 99 - 99 6/24/2018 5:50:00 PM
US-13 at US-113 80 82 74 None Calm 9 mph W 102 - 102 6/24/2018 5:45:00 PM
US-13 at US-50 85 63 71 None 4 mph 9 mph S 102 - 102 6/24/2018 5:50:00 PM
US-15 at MD-140 69 97 68 Rain Calm 8 mph SW 80 - 81 6/24/2018 5:50:00 PM
US-301 at MD-5 83 72 73 None Calm 5 mph S 100 - 101 6/24/2018 5:50:00 PM
US-301 at Potomac 78 91 75 None 9 mph 12 mph S 89 - 91 6/24/2018 5:54:00 PM
US-340 at MD-180 81 70 71 None Calm 13 mph S 104 - 109 6/24/2018 5:50:00 PM
US-50 at Choptank 81 85 76 Rain Calm 10 mph S 90 - 90 6/24/2018 5:50:00 PM
US-50 at I-95 87 56 69 None 4 mph 10 mph SW 102 - 105 6/24/2018 5:50:00 PM
US-50 at MD-2 86 65 73 None Calm 6 mph S 101 - 104 6/24/2018 5:50:00 PM
US-50 at MD-331 83 71 73 None 8 mph 13 mph SW 101 - 104 6/24/2018 5:45:00 PM
US-50 at OC Drawbridge 81 85 76 None Calm 8 mph S 104 - 104 6/24/2018 5:45:00 PM
US-50 at Table Rock Rd 71 83 66 None 7 mph 17 mph W 98 - 98 6/24/2018 5:50:00 PM
US-50 Kent Narrow Bridge 86 69 75 None 4 mph 8 mph SE 101 - 102 6/24/2018 5:50:00 PM
WPL Pier 31 82 61 68 None 5 mph 15 mph S 99 - 99 6/24/2018 5:54:00 PM
Location Air RH Dwp Precip Type Wind Speed Wind Gust Direction Pavement Temperature Date/Time